Time;durP1;ratioP1;P1;durP2;ratioP2;P2;SDS_P1;SDS_P2;PMS_P1;PMS_P2;Temp;Humidity;BMP_temperature;BMP_pressure;BME280_temperature;BME280_humidity;BME280_pressure;Samples;Min_cycle;Max_cycle;Signal;HPM_P1;HPM_P2
2021/08/02 00:00:24;;;;;;;11.05;8.15;;;;;;;16.66;89.47;99800.43;5064412;58;21194;-74
2021/08/02 00:05:35;;;;;;;12.60;8.70;;;;;;;16.66;89.25;99783.58;5068894;58;21159;-74
2021/08/02 00:10:41;;;;;;;10.57;8.50;;;;;;;16.59;89.18;99794.62;5058441;58;21194;-74
2021/08/02 00:15:48;;;;;;;12.47;9.00;;;;;;;16.49;90.02;99797.52;5034011;58;21602;-74
2021/08/02 00:20:56;;;;;;;10.23;7.40;;;;;;;16.43;89.79;99801.70;5034608;58;21173;-74
2021/08/02 00:26:04;;;;;;;9.90;6.93;;;;;;;16.43;90.01;99797.70;5036104;58;21177;-74
2021/08/02 00:31:10;;;;;;;10.37;7.93;;;;;;;16.40;89.98;99792.70;5032021;58;21520;-74
2021/08/02 00:36:23;;;;;;;16.20;8.70;;;;;;;16.41;89.77;99794.87;5036236;58;21122;-74
2021/08/02 00:42:06;;;;;;;10.10;7.55;;;;;;;16.36;89.41;99787.87;5033225;58;21210;-74
2021/08/02 00:47:17;;;;;;;13.27;7.93;;;;;;;16.30;89.56;99797.93;5031800;58;21110;-74
2021/08/02 00:52:25;;;;;;;11.77;7.07;;;;;;;16.18;89.82;99792.98;5037522;58;21224;-74
2021/08/02 00:57:37;;;;;;;14.40;8.00;;;;;;;16.16;90.06;99799.48;5035146;58;21262;-74
2021/08/02 01:02:46;;;;;;;;;;;;;;;16.11;90.23;99788.49;5039710;58;21169;-75
2021/08/02 01:08:04;;;;;;;10.07;7.60;;;;;;;16.06;90.38;99784.16;5032766;58;20160;-74
2021/08/02 01:13:16;;;;;;;11.70;7.10;;;;;;;16.03;90.38;99777.86;5065004;58;21159;-73
2021/08/02 01:18:24;;;;;;;10.03;7.17;;;;;;;16.01;90.55;99786.53;5078303;58;21719;-74
2021/08/02 01:23:32;;;;;;;9.43;7.30;;;;;;;15.98;90.42;99787.70;5071971;58;21797;-74
2021/08/02 01:29:15;;;;;;;10.17;7.40;;;;;;;15.99;90.29;99793.88;5066446;58;21116;-73
2021/08/02 01:34:20;;;;;;;9.80;7.37;;;;;;;16.01;90.12;99794.03;5121279;57;21212;-74
2021/08/02 01:39:26;;;;;;;9.37;6.77;;;;;;;15.96;90.08;99798.20;5112334;57;21879;-74
2021/08/02 01:44:32;;;;;;;7.63;6.80;;;;;;;15.89;90.05;99795.37;5106332;57;21616;-74
2021/08/02 01:50:02;;;;;;;10.60;7.07;;;;;;;15.83;90.19;99800.08;5101537;57;21099;-74
2021/08/02 01:55:16;;;;;;;7.27;6.57;;;;;;;15.81;90.47;99800.75;5125132;57;21171;-73
2021/08/02 02:00:23;;;;;;;9.17;6.73;;;;;;;15.76;90.38;99791.08;5121773;57;21203;-74
2021/08/02 02:05:38;;;;;;;9.10;7.30;;;;;;;15.74;90.36;99797.08;5108789;57;22108;-74
2021/08/02 02:10:57;;;;;;;12.73;7.30;;;;;;;15.66;90.11;99796.61;5100656;57;21717;-74
2021/08/02 02:16:09;;;;;;;9.37;7.30;;;;;;;15.60;89.77;99803.94;4999379;57;21187;-74
2021/08/02 02:21:17;;;;;;;12.50;7.20;;;;;;;15.55;89.69;99802.30;5048262;57;21123;-74
2021/08/02 02:26:27;;;;;;;7.57;6.67;;;;;;;15.53;89.50;99812.26;5019237;57;21187;-74
2021/08/02 02:31:34;;;;;;;8.63;7.37;;;;;;;15.55;89.60;99820.95;5025173;58;21175;-74
2021/08/02 02:36:42;;;;;;;8.77;6.77;;;;;;;15.51;89.77;99819.59;4979938;59;21122;-74
2021/08/02 02:41:49;;;;;;;8.57;6.97;;;;;;;15.54;89.80;99819.26;4955872;58;21125;-74
2021/08/02 02:46:57;;;;;;;7.87;6.93;;;;;;;15.53;89.71;99823.42;4965374;58;21179;-74
2021/08/02 02:52:05;;;;;;;16.37;6.57;;;;;;;15.54;89.64;99827.25;5055202;58;22047;-74
2021/08/02 02:57:11;;;;;;;10.50;6.53;;;;;;;15.54;89.62;99829.08;4974148;58;22160;-73
2021/08/02 03:02:21;;;;;;;11.57;6.93;;;;;;;15.55;89.63;99836.08;5055232;57;21145;-74
2021/08/02 03:07:30;;;;;;;7.07;6.23;;;;;;;15.59;89.71;99844.08;4965559;58;21171;-74
2021/08/02 03:12:36;;;;;;;10.50;6.50;;;;;;;15.62;89.68;99844.59;5072771;58;21184;-74
2021/08/02 03:17:42;;;;;;;11.20;6.60;;;;;;;15.58;89.61;99851.78;5044303;57;21097;-74
2021/08/02 03:23:01;;;;;;;8.10;6.07;;;;;;;15.51;89.80;99856.90;5051728;57;21515;-74
2021/08/02 03:28:22;;;;;;;7.60;6.20;;;;;;;15.48;90.06;99866.55;5031059;57;21152;-74
2021/08/02 03:33:41;;;;;;;6.97;5.43;;;;;;;15.43;90.15;99867.54;5037608;57;21106;-74
2021/08/02 03:38:51;;;;;;;6.80;5.37;;;;;;;15.43;90.41;99870.20;5040743;57;21177;-74
2021/08/02 03:43:58;;;;;;;8.23;4.37;;;;;;;15.46;90.30;99872.05;5044523;57;21178;-74
2021/08/02 03:49:05;;;;;;;5.07;4.57;;;;;;;15.47;90.48;99884.38;5047664;56;21180;-74
2021/08/02 03:54:11;;;;;;;7.40;4.67;;;;;;;15.45;90.27;99885.03;5065463;57;21243;-74
2021/08/02 03:59:17;;;;;;;5.23;3.60;;;;;;;15.43;90.32;99881.70;5105859;57;21149;-74
2021/08/02 04:04:22;;;;;;;5.83;3.80;;;;;;;15.45;90.38;99884.20;4954128;58;21119;-74
2021/08/02 04:09:29;;;;;;;6.00;4.33;;;;;;;15.41;90.41;99889.55;5060377;57;21147;-74
2021/08/02 04:14:34;;;;;;;4.90;4.40;;;;;;;15.35;90.42;99888.37;5056797;57;21541;-74
2021/08/02 04:19:40;;;;;;;4.47;4.00;;;;;;;15.34;90.62;99896.02;5105076;57;21799;-74
2021/08/02 04:24:46;;;;;;;4.90;4.10;;;;;;;15.35;90.99;99907.02;4935141;59;21127;-74
2021/08/02 04:29:52;;;;;;;6.33;3.73;;;;;;;15.31;90.83;99911.50;5020910;58;21156;-75
2021/08/02 04:34:57;;;;;;;4.00;3.70;;;;;;;15.27;91.34;99905.69;4999015;58;21275;-74
2021/08/02 04:40:04;;;;;;;6.30;4.07;;;;;;;15.22;91.25;99913.33;4985655;57;21223;-74
2021/08/02 04:45:10;;;;;;;2.67;2.47;;;;;;;15.21;91.54;99916.16;4977358;57;21255;-74
2021/08/02 04:50:16;;;;;;;11.93;4.00;;;;;;;15.27;92.03;99916.84;5008509;58;21183;-74
2021/08/02 04:55:22;;;;;;;4.40;4.00;;;;;;;15.30;91.96;99923.15;4984256;58;21169;-74
2021/08/02 05:00:27;;;;;;;6.13;4.60;;;;;;;15.35;91.96;99929.67;5026579;58;21175;-74
2021/08/02 05:05:33;;;;;;;6.03;2.90;;;;;;;15.35;92.40;99940.33;5099793;57;22173;-74
2021/08/02 05:10:39;;;;;;;4.57;4.27;;;;;;;15.35;93.30;99950.15;4943260;59;21584;-74
2021/08/02 05:15:45;;;;;;;5.90;3.77;;;;;;;15.27;93.06;99948.81;5064226;58;21207;-74
2021/08/02 05:20:50;;;;;;;5.57;4.50;;;;;;;15.20;93.91;99963.77;5121002;57;21182;-74
2021/08/02 05:25:56;;;;;;;4.53;4.13;;;;;;;15.14;93.67;99966.56;5121081;57;21161;-74
2021/08/02 05:31:02;;;;;;;5.17;4.67;;;;;;;15.13;93.58;99978.21;5121408;57;21506;-74
2021/08/02 05:36:08;;;;;;;4.20;3.90;;;;;;;15.22;93.53;99975.09;5120943;57;21194;-75
2021/08/02 05:41:14;;;;;;;5.47;4.10;;;;;;;15.34;93.30;99969.80;5121665;57;21150;-74
2021/08/02 05:46:20;;;;;;;8.33;4.00;;;;;;;15.41;92.82;99972.16;5125099;57;21161;-74
2021/08/02 05:51:25;;;;;;;7.63;4.30;;;;;;;15.51;92.72;99971.50;5117923;57;21226;-74
2021/08/02 05:56:31;;;;;;;5.27;4.07;;;;;;;15.57;93.19;99983.38;5115843;57;21158;-74
2021/08/02 06:01:36;;;;;;;9.63;4.27;;;;;;;15.51;92.36;99991.48;5119087;57;22198;-74
2021/08/02 06:06:42;;;;;;;4.67;3.63;;;;;;;15.58;92.54;99993.88;5123732;57;21540;-74
2021/08/02 06:11:48;;;;;;;3.50;3.23;;;;;;;15.67;92.55;100012.05;5100641;57;21202;-74
2021/08/02 06:16:54;;;;;;;6.33;5.50;;;;;;;15.65;91.71;100010.88;5078151;58;21179;-74
2021/08/02 06:21:59;;;;;;;8.37;4.13;;;;;;;15.68;91.58;100009.22;5061442;58;21115;-74
2021/08/02 06:27:05;;;;;;;10.33;4.13;;;;;;;15.69;91.33;100011.39;5061890;58;21189;-74
2021/08/02 06:32:11;;;;;;;3.87;3.57;;;;;;;15.79;91.21;100014.23;5059584;58;21165;-74
2021/08/02 06:37:17;;;;;;;8.73;4.00;;;;;;;15.86;91.18;100017.58;5077120;58;21163;-74
2021/08/02 06:42:22;;;;;;;3.50;3.17;;;;;;;15.89;90.67;100015.39;5066098;58;21173;-74
2021/08/02 06:47:28;;;;;;;4.17;2.97;;;;;;;15.95;90.44;100015.23;5061574;58;21173;-74
2021/08/02 06:52:34;;;;;;;6.73;3.17;;;;;;;16.15;90.24;100017.92;5059319;58;21189;-74
2021/08/02 06:57:40;;;;;;;7.70;3.80;;;;;;;16.25;89.44;100027.08;5066269;58;21117;-73
2021/08/02 07:02:46;;;;;;;4.53;3.67;;;;;;;16.25;88.60;100021.25;5067872;58;21235;-74
2021/08/02 07:07:51;;;;;;;5.03;3.80;;;;;;;16.30;88.78;100026.09;5066199;58;21173;-74
2021/08/02 07:12:57;;;;;;;5.57;3.20;;;;;;;16.43;88.49;100038.42;5069060;58;21163;-74
2021/08/02 07:18:02;;;;;;;10.20;3.73;;;;;;;16.54;88.36;100036.73;5061780;58;21175;-74
2021/08/02 07:23:08;;;;;;;6.90;3.07;;;;;;;16.63;87.01;100043.77;5073296;57;21455;-74
2021/08/02 07:28:14;;;;;;;6.07;2.70;;;;;;;16.67;87.19;100050.92;5120545;57;22117;-75
2021/08/02 07:33:20;;;;;;;4.87;2.00;;;;;;;16.75;86.32;100056.27;5122428;57;21182;-74
2021/08/02 07:38:26;;;;;;;2.70;2.50;;;;;;;16.81;85.14;100055.56;5104040;57;21158;-75
2021/08/02 07:43:31;;;;;;;2.20;2.07;;;;;;;16.88;85.15;100050.72;5095056;58;21213;-74
2021/08/02 07:48:37;;;;;;;7.30;3.23;;;;;;;17.09;83.75;100052.01;5118552;57;21211;-74
2021/08/02 07:53:43;;;;;;;4.67;2.60;;;;;;;17.11;83.00;100054.02;5116475;57;21162;-74
2021/08/02 07:58:50;;;;;;;5.53;2.80;;;;;;;17.22;82.98;100053.13;5119619;57;21174;-73
2021/08/02 08:03:55;;;;;;;3.40;2.13;;;;;;;17.25;80.44;100059.97;5107922;57;21165;-74
2021/08/02 08:09:00;;;;;;;14.97;5.83;;;;;;;17.18;80.86;100060.31;5100456;57;21138;-74
2021/08/02 08:14:06;;;;;;;5.93;3.40;;;;;;;17.19;82.14;100070.83;5111352;57;21169;-74
2021/08/02 08:19:11;;;;;;;9.23;1.97;;;;;;;17.34;80.41;100064.26;5112453;58;21173;-73
2021/08/02 08:24:17;;;;;;;1.60;1.50;;;;;;;17.41;77.16;100065.75;5096377;57;21165;-74
2021/08/02 08:29:23;;;;;;;3.27;1.43;;;;;;;17.43;77.28;100063.20;5105800;57;21146;-74
2021/08/02 08:34:29;;;;;;;4.50;1.70;;;;;;;17.46;77.97;100064.70;5095111;57;21091;-74
2021/08/02 08:39:34;;;;;;;6.43;1.97;;;;;;;17.46;75.65;100070.05;5097569;58;21194;-74
2021/08/02 08:44:41;;;;;;;5.77;1.67;;;;;;;17.49;74.75;100065.19;5112386;58;21166;-74
2021/08/02 08:49:47;;;;;;;3.53;1.80;;;;;;;17.81;75.28;100067.39;5098825;58;21249;-74
2021/08/02 08:54:52;;;;;;;3.40;1.80;;;;;;;18.03;72.64;100066.56;5104475;58;21174;-74
2021/08/02 08:59:58;;;;;;;5.23;1.70;;;;;;;18.24;72.40;100067.26;5085683;58;21158;-74
2021/08/02 09:05:06;;;;;;;1.77;1.20;;;;;;;18.40;73.13;100079.68;5113002;57;21091;-74
2021/08/02 09:10:17;;;;;;;4.10;1.57;;;;;;;18.32;70.47;100083.77;5093351;57;21165;-73
2021/08/02 09:15:38;;;;;;;1.73;0.97;;;;;;;18.24;72.42;100094.86;4991322;58;21186;-74
2021/08/02 09:20:44;;;;;;;4.47;1.10;;;;;;;18.20;70.42;100088.69;4985761;58;22130;-74
2021/08/02 09:25:53;;;;;;;65.50;7.00;;;;;;;18.27;70.39;100091.83;4973571;58;21206;-75
2021/08/02 09:31:06;;;;;;;2.02;1.20;;;;;;;18.31;70.05;100101.69;5103069;57;21193;-74
2021/08/02 09:36:12;;;;;;;2.33;1.50;;;;;;;18.29;70.19;100106.38;5108974;57;21174;-74
2021/08/02 09:41:23;;;;;;;14.43;2.63;;;;;;;18.19;71.28;100107.10;5118693;57;21200;-73
2021/08/02 09:46:29;;;;;;;2.90;1.60;;;;;;;18.12;70.71;100115.03;5106613;57;21177;-74
2021/08/02 09:51:44;;;;;;;1.50;1.40;;;;;;;18.13;70.91;100112.68;5113293;57;21166;-74
2021/08/02 09:56:51;;;;;;;6.72;1.32;;;;;;;18.33;70.46;100102.84;5026114;59;21200;-75
2021/08/02 10:01:57;;;;;;;1.57;1.10;;;;;;;18.52;72.20;100102.33;5096038;57;21211;-74
2021/08/02 10:07:13;;;;;;;2.02;1.65;;;;;;;18.72;71.07;100102.20;5120044;57;21157;-74
2021/08/02 10:12:13;;;;;;;2.92;1.20;;;;;;;18.91;67.98;100104.87;5035007;58;21170;-73
2021/08/02 10:17:19;;;;;;;5.55;1.12;;;;;;;19.25;66.72;100119.06;5015870;59;21119;-75
2021/08/02 10:22:24;;;;;;;1.22;1.05;;;;;;;19.33;65.98;100122.50;4980004;58;21667;-74
2021/08/02 10:27:32;;;;;;;1.15;1.07;;;;;;;19.42;62.37;100126.41;4882628;59;21212;-75
2021/08/02 10:37:55;;;;;;;1.65;1.30;;;;;;;19.61;60.83;100111.96;5407115;55;21196;-73
2021/08/02 10:43:00;;;;;;;7.80;1.05;;;;;;;19.46;61.37;100124.52;5105528;58;21234;-74
2021/08/02 10:48:07;;;;;;;4.53;0.90;;;;;;;19.36;62.08;100119.13;5099639;58;21207;-74
2021/08/02 10:53:20;;;;;;;1.47;0.82;;;;;;;19.42;63.69;100118.37;5160563;57;21169;-74
2021/08/02 10:58:29;;;;;;;;;;;;;;;19.44;58.97;100126.55;5168677;57;21205;-73
2021/08/02 11:03:39;;;;;;;34.53;3.22;;;;;;;19.44;62.67;100123.88;5164844;57;20141;-75
2021/08/02 11:08:56;;;;;;;2.90;0.75;;;;;;;19.47;60.58;100118.14;5114896;58;21144;-75
2021/08/02 11:14:24;;;;;;;3.25;1.00;;;;;;;19.46;60.85;100121.01;5076449;58;21190;-74
2021/08/02 11:19:29;;;;;;;2.45;0.95;;;;;;;19.40;62.73;100128.47;5038078;58;21502;-74
2021/08/02 11:24:39;;;;;;;4.95;1.60;;;;;;;19.30;61.44;100130.08;5152701;57;21101;-74
2021/08/02 11:29:54;;;;;;;1.50;0.82;;;;;;;19.27;62.64;100135.29;5076158;58;21589;-74
2021/08/02 11:35:01;;;;;;;3.85;1.45;;;;;;;19.55;61.08;100133.35;5089460;57;21183;-74
2021/08/02 11:40:09;;;;;;;2.62;1.00;;;;;;;19.71;61.66;100134.46;5137891;57;21132;-74
2021/08/02 11:45:16;;;;;;;0.68;0.68;;;;;;;19.85;59.05;100130.12;5196431;56;21200;-74
2021/08/02 11:50:22;;;;;;;0.62;0.62;;;;;;;19.80;56.58;100136.55;5240779;56;21485;-76
2021/08/02 11:55:28;;;;;;;1.52;0.70;;;;;;;19.83;53.84;100134.33;5209201;56;21187;-75
2021/08/02 12:00:34;;;;;;;0.80;0.47;;;;;;;20.01;54.87;100124.53;5215154;56;21164;-75
2021/08/02 12:05:40;;;;;;;1.42;0.88;;;;;;;20.48;52.14;100124.48;5268871;56;21646;-76
2021/08/02 12:11:05;;;;;;;2.08;0.90;;;;;;;20.60;51.38;100121.63;5242158;55;21175;-75
2021/08/02 12:16:26;;;;;;;5.28;0.82;;;;;;;20.86;50.08;100115.63;5267243;56;21218;-74
2021/08/02 12:21:33;;;;;;;2.25;1.00;;;;;;;21.21;51.19;100113.84;5222111;56;22127;-75
2021/08/02 12:26:51;;;;;;;5.47;4.33;;;;;;;21.39;46.86;100115.47;5240208;56;21152;-74
2021/08/02 12:32:05;;;;;;;2.20;0.98;;;;;;;21.56;49.66;100103.86;5189317;57;21097;-75
2021/08/02 12:37:12;;;;;;;4.15;1.00;;;;;;;21.76;47.57;100097.53;5189216;57;21144;-75
2021/08/02 12:42:18;;;;;;;2.37;0.80;;;;;;;21.83;47.64;100099.44;5189369;57;21190;-75
2021/08/02 12:47:23;;;;;;;29.90;2.90;;;;;;;21.88;47.27;100091.56;5242691;56;21153;-76
2021/08/02 12:52:31;;;;;;;9.20;1.07;;;;;;;22.02;46.43;100091.42;5264256;56;21151;-76
2021/08/02 12:57:45;;;;;;;5.80;0.70;;;;;;;22.21;44.97;100103.80;5246365;56;21182;-77
2021/08/02 13:02:47;;;;;;;1.65;0.80;;;;;;;22.18;45.02;100088.87;5257648;56;21145;-76
2021/08/02 13:07:53;;;;;;;5.37;1.02;;;;;;;22.03;44.23;100097.13;5207197;55;21140;-76
2021/08/02 13:12:59;;;;;;;2.52;0.90;;;;;;;22.09;47.02;100084.72;5258765;56;21203;-76
2021/08/02 13:18:07;;;;;;;1.15;0.68;;;;;;;22.36;44.80;100088.27;5276459;56;21141;-76
2021/08/02 13:23:41;;;;;;;1.02;0.78;;;;;;;22.30;44.47;100079.69;5276746;56;21172;-76
2021/08/02 13:28:21;;;;;;;2.47;1.10;;;;;;;22.32;43.91;100081.11;5269953;56;21148;-76
2021/08/02 13:33:27;;;;;;;8.38;1.12;;;;;;;22.16;44.69;100085.54;5261318;56;21144;-76
2021/08/02 13:38:33;;;;;;;3.55;0.62;;;;;;;22.15;45.35;100087.95;5214202;57;21582;-75
2021/08/02 13:43:39;;;;;;;2.67;1.05;;;;;;;22.02;45.04;100091.94;5269447;56;21151;-75
2021/08/02 13:48:45;;;;;;;1.65;0.70;;;;;;;22.16;45.09;100082.02;5301622;56;22169;-75
2021/08/02 13:53:50;;;;;;;2.22;0.82;;;;;;;22.42;45.36;100072.13;5311633;56;21148;-75
2021/08/02 13:58:56;;;;;;;3.35;0.80;;;;;;;22.65;43.48;100078.95;5242936;55;21140;-76
2021/08/02 14:04:01;;;;;;;3.50;1.00;;;;;;;22.75;43.94;100071.29;5223269;56;21491;-75
2021/08/02 14:09:08;;;;;;;3.33;1.00;;;;;;;22.86;43.48;100063.94;5225286;56;21144;-75
2021/08/02 14:14:15;;;;;;;3.92;1.67;;;;;;;22.81;41.62;100056.98;5311467;56;21082;-75
2021/08/02 14:19:26;;;;;;;2.80;0.78;;;;;;;22.53;42.13;100080.09;5311595;56;21137;-75
2021/08/02 14:24:32;;;;;;;7.05;1.20;;;;;;;22.39;43.88;100083.31;5311657;56;21152;-75
2021/08/02 14:29:41;;;;;;;1.27;0.60;;;;;;;22.36;44.76;100068.89;5311606;55;21156;-76
2021/08/02 14:34:47;;;;;;;4.12;1.25;;;;;;;22.30;44.70;100093.16;5311502;56;21597;-75
2021/08/02 14:39:57;;;;;;;2.62;1.10;;;;;;;22.34;45.92;100093.86;5280950;55;21141;-75
2021/08/02 14:45:07;;;;;;;1.40;0.95;;;;;;;22.30;44.17;100088.59;5244519;56;21093;-76
2021/08/02 14:50:15;;;;;;;2.72;1.30;;;;;;;22.24;45.23;100092.10;5188912;56;21152;-76
2021/08/02 14:55:21;;;;;;;1.90;1.20;;;;;;;22.24;43.89;100099.35;5188851;56;21502;-75
2021/08/02 15:00:27;;;;;;;1.57;1.45;;;;;;;22.39;42.69;100087.35;5213434;56;22083;-75
2021/08/02 15:05:33;;;;;;;2.87;0.90;;;;;;;22.32;44.14;100094.58;5244668;56;21768;-75
2021/08/02 15:10:42;;;;;;;4.33;0.80;;;;;;;22.12;41.86;100095.09;5221420;56;21166;-75
2021/08/02 15:15:54;;;;;;;6.90;1.12;;;;;;;22.14;41.99;100090.84;5179992;57;21163;-75
2021/08/02 15:21:01;;;;;;;3.37;1.02;;;;;;;22.02;42.62;100106.75;5180552;57;21485;-75
2021/08/02 15:26:10;;;;;;;1.65;0.95;;;;;;;21.92;44.30;100107.63;5190569;56;21137;-76
2021/08/02 15:31:16;;;;;;;1.77;1.02;;;;;;;21.86;43.89;100113.81;5210318;56;21171;-75
2021/08/02 15:36:23;;;;;;;1.87;1.47;;;;;;;21.78;44.25;100124.77;5262150;56;21077;-75
2021/08/02 15:41:29;;;;;;;1.02;1.02;;;;;;;21.72;44.73;100125.88;5276907;56;21649;-75
2021/08/02 15:46:40;;;;;;;2.27;0.90;;;;;;;21.55;44.09;100134.48;5276681;56;21180;-75
2021/08/02 15:51:52;;;;;;;0.85;0.85;;;;;;;21.39;44.07;100133.78;5275327;56;21145;-76
2021/08/02 15:57:02;;;;;;;5.37;1.37;;;;;;;21.32;44.92;100142.34;5276722;55;22095;-75
2021/08/02 16:02:12;;;;;;;2.67;1.00;;;;;;;21.22;45.50;100145.92;5276617;56;21156;-75
2021/08/02 16:07:20;;;;;;;8.03;1.70;;;;;;;21.21;46.46;100146.95;5276583;55;21148;-75
2021/08/02 16:12:46;;;;;;;4.37;1.55;;;;;;;21.26;46.98;100151.20;5229827;56;21566;-76
2021/08/02 16:17:55;;;;;;;7.87;1.40;;;;;;;21.32;46.51;100148.24;5231109;56;21159;-75
2021/08/02 16:23:02;;;;;;;5.85;1.22;;;;;;;21.30;46.07;100148.44;5222820;56;21156;-75
2021/08/02 16:28:07;;;;;;;2.80;1.20;;;;;;;21.22;45.68;100155.84;5262548;55;21144;-75
2021/08/02 16:33:15;;;;;;;3.30;1.30;;;;;;;21.18;45.10;100166.13;5189286;57;21178;-75
2021/08/02 16:38:21;;;;;;;5.00;1.15;;;;;;;21.16;46.40;100165.48;5189326;56;21157;-75
2021/08/02 16:43:27;;;;;;;2.05;1.00;;;;;;;21.08;46.34;100175.86;5189284;57;21146;-75
2021/08/02 16:48:33;;;;;;;1.82;1.25;;;;;;;21.02;45.93;100177.17;5189116;57;21213;-75
2021/08/02 16:53:38;;;;;;;1.52;0.88;;;;;;;20.91;46.08;100183.09;5189336;56;21484;-75
2021/08/02 16:58:44;;;;;;;1.40;0.93;;;;;;;20.81;46.17;100190.12;5189260;56;21166;-75
2021/08/02 17:03:49;;;;;;;1.77;0.93;;;;;;;20.69;46.65;100181.75;5189302;56;21146;-75
2021/08/02 17:08:55;;;;;;;3.72;1.15;;;;;;;20.54;46.26;100189.55;5214497;56;21141;-75
2021/08/02 17:14:01;;;;;;;5.50;1.85;;;;;;;20.49;47.31;100198.69;5259182;56;21145;-75
2021/08/02 17:19:06;;;;;;;1.25;1.10;;;;;;;20.50;48.33;100198.50;5212906;56;21195;-75
2021/08/02 17:24:12;;;;;;;1.12;0.85;;;;;;;20.53;48.27;100209.38;5189120;57;21313;-74
2021/08/02 17:29:18;;;;;;;5.78;1.10;;;;;;;20.48;47.80;100213.14;5189256;57;21145;-75
2021/08/02 17:34:24;;;;;;;4.70;1.42;;;;;;;20.43;47.77;100212.39;5189123;56;21233;-74
2021/08/02 17:39:30;;;;;;;5.30;1.22;;;;;;;20.35;48.25;100215.15;5201636;56;21604;-75
2021/08/02 17:44:35;;;;;;;2.15;1.50;;;;;;;20.30;48.59;100227.82;5223301;57;22053;-75
2021/08/02 17:49:42;;;;;;;3.30;1.15;;;;;;;20.21;47.95;100227.59;5253645;56;21427;-74
2021/08/02 17:54:47;;;;;;;4.80;1.50;;;;;;;20.16;48.53;100230.54;5249344;56;22094;-74
2021/08/02 17:59:53;;;;;;;1.85;1.10;;;;;;;20.11;48.80;100235.63;5311646;55;21139;-75
2021/08/02 18:04:59;;;;;;;3.27;1.00;;;;;;;20.00;48.79;100234.27;5223273;56;21150;-74
2021/08/02 18:10:06;;;;;;;2.25;1.40;;;;;;;20.00;49.43;100238.30;5223378;57;21194;-75
2021/08/02 18:15:13;;;;;;;2.15;1.45;;;;;;;19.96;49.43;100243.20;5223052;57;21184;-76
2021/08/02 18:20:18;;;;;;;4.60;0.90;;;;;;;19.90;49.55;100243.09;5285887;56;21164;-74
2021/08/02 18:25:24;;;;;;;4.35;1.07;;;;;;;19.85;49.66;100245.02;5311615;56;21139;-75
2021/08/02 18:30:29;;;;;;;1.75;0.90;;;;;;;19.80;49.87;100243.38;5311584;56;21139;-75
2021/08/02 18:35:35;;;;;;;2.58;1.20;;;;;;;19.77;49.83;100254.99;5292584;56;21193;-75
2021/08/02 18:40:41;;;;;;;3.37;2.40;;;;;;;19.75;50.08;100256.52;5244118;56;21208;-74
2021/08/02 18:45:47;;;;;;;5.58;1.30;;;;;;;19.76;50.21;100268.08;5223106;57;21161;-74
2021/08/02 18:50:52;;;;;;;6.25;1.20;;;;;;;19.73;50.15;100268.45;5223116;57;21185;-74
2021/08/02 18:55:58;;;;;;;6.28;1.72;;;;;;;19.70;50.38;100262.97;5223331;57;21165;-73
2021/08/02 19:01:04;;;;;;;4.22;2.40;;;;;;;19.63;50.46;100268.22;5223850;57;21174;-73
2021/08/02 19:06:10;;;;;;;1.27;1.00;;;;;;;19.57;50.69;100276.98;5223785;57;21191;-74
2021/08/02 19:11:17;;;;;;;4.60;1.40;;;;;;;19.51;50.89;100275.05;5223699;57;21626;-74
2021/08/02 19:16:26;;;;;;;1.55;0.60;;;;;;;19.42;50.92;100273.92;5221672;57;21218;-73
2021/08/02 19:21:36;;;;;;;2.35;1.10;;;;;;;19.36;50.95;100280.03;5223709;57;21619;-74
2021/08/02 19:26:45;;;;;;;0.78;0.78;;;;;;;19.28;51.07;100281.76;5223860;57;21106;-74
2021/08/02 19:31:51;;;;;;;2.45;0.93;;;;;;;19.23;50.89;100289.53;5269131;56;21480;-74
2021/08/02 19:37:01;;;;;;;1.47;0.70;;;;;;;19.15;50.97;100294.94;5281385;56;21486;-74
2021/08/02 19:42:14;;;;;;;0.60;0.60;;;;;;;19.11;51.04;100298.16;5239174;56;21140;-74
2021/08/02 19:47:58;;;;;;;1.50;0.82;;;;;;;19.07;51.17;100304.41;5247024;56;21247;-75
2021/08/02 19:53:05;;;;;;;0.87;0.87;;;;;;;19.01;51.23;100313.14;5216688;56;22088;-73
2021/08/02 19:58:15;;;;;;;1.95;0.55;;;;;;;18.94;51.31;100306.84;5220469;56;21160;-73
2021/08/02 20:03:22;;;;;;;2.25;0.70;;;;;;;18.89;51.57;100311.89;5222484;56;21680;-74
2021/08/02 20:08:27;;;;;;;16.20;1.05;;;;;;;18.79;51.05;100317.47;5207665;56;21148;-74
2021/08/02 20:13:34;;;;;;;2.37;1.00;;;;;;;18.68;50.92;100317.04;5276890;56;21143;-74
2021/08/02 20:18:40;;;;;;;3.35;1.07;;;;;;;18.59;51.33;100326.47;5268179;56;21164;-74
2021/08/02 20:23:57;;;;;;;1.00;1.00;;;;;;;18.51;51.52;100332.33;5189381;56;21749;-74
2021/08/02 20:29:11;;;;;;;2.27;1.35;;;;;;;18.42;51.77;100332.88;5201045;56;21154;-74
2021/08/02 20:34:18;;;;;;;1.22;0.85;;;;;;;18.35;52.07;100341.27;5222715;56;21192;-74
2021/08/02 20:39:23;;;;;;;3.50;0.90;;;;;;;18.31;52.32;100343.14;5231161;56;21189;-74
2021/08/02 20:44:32;;;;;;;2.37;1.30;;;;;;;18.24;52.42;100345.66;5219411;56;21704;-73
2021/08/02 20:49:38;;;;;;;1.90;1.00;;;;;;;18.15;52.68;100342.70;5194409;56;21183;-73
2021/08/02 20:54:48;;;;;;;5.97;1.00;;;;;;;18.04;52.97;100346.55;5236130;56;21085;-75
2021/08/02 21:00:00;;;;;;;1.40;0.60;;;;;;;18.02;53.34;100350.44;5232742;56;21214;-75
2021/08/02 21:05:20;;;;;;;0.70;0.60;;;;;;;17.97;53.55;100355.45;5235476;56;21157;-75
2021/08/02 21:10:36;;;;;;;1.30;0.55;;;;;;;17.89;53.75;100351.77;5235670;56;21126;-75
2021/08/02 21:15:55;;;;;;;1.45;1.35;;;;;;;17.86;54.05;100350.80;5238114;56;21180;-75
2021/08/02 21:21:00;;;;;;;0.60;0.60;;;;;;;17.82;54.28;100350.80;5237198;56;21255;-75
2021/08/02 21:26:10;;;;;;;12.47;2.35;;;;;;;17.80;54.55;100362.17;5194413;56;21187;-76
2021/08/02 21:31:16;;;;;;;1.90;1.07;;;;;;;17.74;54.79;100368.18;5223834;56;21474;-75
2021/08/02 21:36:23;;;;;;;2.97;0.90;;;;;;;17.74;55.02;100374.03;5217825;56;21530;-75
2021/08/02 21:41:29;;;;;;;2.30;0.62;;;;;;;17.72;55.28;100374.20;5245327;55;21161;-75
2021/08/02 21:46:35;;;;;;;1.63;0.83;;;;;;;17.70;55.39;100374.90;5320702;55;21213;-75
2021/08/02 21:51:41;;;;;;;6.67;3.53;;;;;;;17.71;55.53;100380.58;5342218;55;21156;-72
2021/08/02 21:56:47;;;;;;;1.50;1.40;;;;;;;17.71;55.50;100379.74;5313445;55;21148;-73
2021/08/02 22:01:52;;;;;;;3.93;2.73;;;;;;;17.70;55.66;100385.59;5309542;55;21672;-73
2021/08/02 22:06:58;;;;;;;2.50;1.93;;;;;;;17.71;55.94;100391.78;5327475;55;21753;-72
2021/08/02 22:12:04;;;;;;;4.30;1.72;;;;;;;17.70;56.19;100389.61;5293992;56;21157;-72
2021/08/02 22:17:10;;;;;;;2.22;1.22;;;;;;;17.73;56.49;100389.25;5329290;55;21524;-72
2021/08/02 22:22:16;;;;;;;4.77;3.10;;;;;;;17.74;56.57;100392.26;5336040;55;21155;-73
2021/08/02 22:27:22;;;;;;;1.10;0.83;;;;;;;17.79;56.94;100389.92;5342095;55;21161;-72
2021/08/02 22:32:28;;;;;;;1.33;1.10;;;;;;;17.80;56.80;100394.77;5338305;55;21222;-73
2021/08/02 22:37:37;;;;;;;4.83;0.83;;;;;;;17.72;56.86;100391.58;5339590;55;21155;-73
2021/08/02 22:42:45;;;;;;;3.73;0.90;;;;;;;17.65;56.94;100403.98;5323377;55;21108;-72
2021/08/02 22:47:50;;;;;;;1.93;0.87;;;;;;;17.59;57.07;100389.89;5247358;56;21145;-72
2021/08/02 22:52:56;;;;;;;0.97;0.83;;;;;;;17.54;57.08;100393.09;5247477;56;21172;-73
2021/08/02 22:58:04;;;;;;;3.80;1.03;;;;;;;17.48;57.07;100391.06;5247530;56;21668;-73
2021/08/02 23:03:11;;;;;;;3.83;1.50;;;;;;;17.43;57.16;100398.73;5247331;56;22075;-73
2021/08/02 23:08:17;;;;;;;4.50;1.37;;;;;;;17.39;57.46;100403.27;5247303;56;22206;-72
2021/08/02 23:13:29;;;;;;;5.83;1.10;;;;;;;17.37;57.89;100402.59;5242396;56;21122;-72
2021/08/02 23:18:35;;;;;;;1.02;0.80;;;;;;;17.32;58.39;100400.91;5236816;56;21113;-73
2021/08/02 23:23:41;;;;;;;9.17;1.10;;;;;;;17.28;58.71;100408.91;5236269;56;21173;-73
2021/08/02 23:28:51;;;;;;;3.40;0.90;;;;;;;17.27;58.93;100407.23;5236078;56;21607;-72
2021/08/02 23:33:59;;;;;;;1.13;0.90;;;;;;;17.24;59.18;100409.77;5235859;56;21229;-73
2021/08/02 23:39:05;;;;;;;4.30;1.03;;;;;;;17.18;59.20;100408.58;5284665;55;21219;-72
2021/08/02 23:44:12;;;;;;;6.90;1.60;;;;;;;17.10;59.33;100409.91;5326426;55;21249;-75
2021/08/02 23:49:19;;;;;;;3.33;1.30;;;;;;;17.07;59.55;100402.72;5326749;55;21172;-75
2021/08/02 23:54:26;;;;;;;3.60;1.10;;;;;;;17.06;59.72;100403.71;5326801;55;21199;-75
2021/08/02 23:59:32;;;;;;;2.30;1.03;;;;;;;17.03;59.87;100400.02;5326556;55;21160;-75
